Time;durP1;ratioP1;P1;durP2;ratioP2;P2;SDS_P1;SDS_P2;PMS_P1;PMS_P2;Temp;Humidity;BMP_temperature;BMP_pressure;BME280_temperature;BME280_humidity;BME280_pressure;Samples;Min_cycle;Max_cycle;Signal;HPM_P1;HPM_P2
2023/01/25 00:01:54;;;;;;;7.70;2.27;;;;;;;6.84;58.84;100471.94;5074182;28;20257;-91
2023/01/25 00:04:20;;;;;;;5.60;2.50;;;;;;;6.64;58.28;100468.81;5074069;28;20181;-91
2023/01/25 00:06:46;;;;;;;6.17;2.40;;;;;;;6.78;58.45;100472.94;5074460;28;20184;-91
2023/01/25 00:09:12;;;;;;;13.60;2.13;;;;;;;6.78;57.55;100466.88;5073942;28;20177;-92
2023/01/25 00:11:38;;;;;;;4.27;1.77;;;;;;;6.79;58.10;100468.56;5073965;28;20253;-91
2023/01/25 00:14:04;;;;;;;4.23;1.50;;;;;;;6.74;58.53;100470.38;5074634;28;20181;-91
2023/01/25 00:16:29;;;;;;;5.80;2.27;;;;;;;6.75;58.90;100467.78;5074423;28;20177;-91
2023/01/25 00:18:55;;;;;;;7.00;2.10;;;;;;;6.82;58.58;100476.34;5073461;28;20169;-91
2023/01/25 00:21:22;;;;;;;7.37;2.50;;;;;;;6.78;58.26;100474.69;5073730;28;20181;-92
2023/01/25 00:23:49;;;;;;;5.97;2.13;;;;;;;6.87;58.14;100479.72;5073867;28;20193;-91
2023/01/25 00:26:14;;;;;;;4.13;2.07;;;;;;;6.86;57.54;100477.16;5074797;28;20181;-91
2023/01/25 00:28:40;;;;;;;4.40;1.90;;;;;;;6.85;57.97;100478.03;5073348;28;20629;-91
2023/01/25 00:31:08;;;;;;;7.90;2.37;;;;;;;6.81;58.04;100474.63;5074122;28;20260;-91
2023/01/25 00:33:43;;;;;;;3.97;1.90;;;;;;;6.65;57.75;100480.97;5074260;28;20507;-91
2023/01/25 00:36:30;;;;;;;7.30;3.07;;;;;;;6.67;58.54;100481.78;5074124;28;20611;-91
2023/01/25 00:38:56;;;;;;;3.77;1.73;;;;;;;6.65;59.01;100479.22;5072968;28;20275;-91
2023/01/25 00:41:22;;;;;;;5.57;2.20;;;;;;;6.67;57.95;100477.44;5073861;28;20238;-91
2023/01/25 00:43:47;;;;;;;7.70;1.83;;;;;;;6.73;58.17;100479.09;5073887;28;20676;-92
2023/01/25 00:46:17;;;;;;;8.20;3.00;;;;;;;6.75;58.60;100473.00;5073839;28;20690;-91
2023/01/25 00:48:43;;;;;;;5.73;2.30;;;;;;;6.75;57.83;100482.53;5073282;28;20200;-92
2023/01/25 00:51:08;;;;;;;3.50;1.80;;;;;;;6.73;58.10;100479.09;5074156;28;20195;-92
2023/01/25 00:53:34;;;;;;;4.73;1.90;;;;;;;6.67;57.92;100479.19;5073103;28;20275;-92
2023/01/25 00:55:59;;;;;;;6.47;2.77;;;;;;;6.63;58.71;100483.56;5073724;28;20252;-91
2023/01/25 00:58:25;;;;;;;7.40;2.07;;;;;;;6.71;58.50;100480.84;5073066;28;20205;-91
2023/01/25 01:00:52;;;;;;;3.87;1.90;;;;;;;6.70;58.05;100486.97;5073369;28;20238;-91
2023/01/25 01:03:17;;;;;;;4.13;1.47;;;;;;;6.66;58.88;100486.13;5073467;28;20181;-91
2023/01/25 01:05:42;;;;;;;5.27;1.77;;;;;;;6.71;58.82;100479.09;5072779;28;20180;-91
2023/01/25 01:08:08;;;;;;;3.83;1.83;;;;;;;6.61;58.28;100479.28;5072534;28;20212;-91
2023/01/25 01:10:33;;;;;;;6.53;1.60;;;;;;;6.68;58.38;100491.34;5073304;28;20188;-91
2023/01/25 01:12:59;;;;;;;9.33;2.50;;;;;;;6.57;57.61;100486.28;5073084;28;20507;-91
2023/01/25 01:15:24;;;;;;;6.57;2.07;;;;;;;6.53;57.78;100488.94;5072661;28;20670;-91
2023/01/25 01:17:50;;;;;;;5.03;2.23;;;;;;;6.54;58.10;100488.94;5074134;28;20165;-92
2023/01/25 01:20:15;;;;;;;5.23;2.00;;;;;;;6.61;58.34;100484.47;5072568;28;20179;-91
2023/01/25 01:22:40;;;;;;;4.23;2.00;;;;;;;6.57;58.52;100483.69;5073299;28;20540;-91
2023/01/25 01:25:07;;;;;;;2.77;1.30;;;;;;;6.51;58.78;100483.78;5072505;28;20188;-91
2023/01/25 01:27:32;;;;;;;4.10;1.90;;;;;;;6.45;59.38;100481.25;5072018;28;20218;-91
2023/01/25 01:29:57;;;;;;;12.93;1.73;;;;;;;6.42;59.49;100488.25;5072110;28;20627;-91
2023/01/25 01:32:23;;;;;;;3.93;1.67;;;;;;;6.43;60.34;100488.22;5072484;28;20189;-91
2023/01/25 01:34:48;;;;;;;4.73;1.87;;;;;;;6.53;59.39;100481.13;5072936;28;20177;-91
2023/01/25 01:37:14;;;;;;;4.33;2.10;;;;;;;6.51;59.60;100472.50;5071856;28;20535;-91
2023/01/25 01:39:39;;;;;;;3.37;1.20;;;;;;;6.48;59.67;100477.72;5072618;28;20575;-92
2023/01/25 01:42:05;;;;;;;5.10;1.97;;;;;;;6.47;59.76;100466.44;5073288;28;20590;-91
2023/01/25 01:44:53;;;;;;;5.10;1.67;;;;;;;6.51;60.76;100468.16;5072089;28;20176;-91
2023/01/25 01:47:50;;;;;;;7.43;2.00;;;;;;;6.43;60.38;100461.31;5072789;28;20288;-91
2023/01/25 01:50:23;;;;;;;3.57;1.43;;;;;;;6.45;60.84;100464.75;5058992;28;20196;-92
2023/01/25 01:52:49;;;;;;;4.53;1.37;;;;;;;6.44;60.37;100458.72;5072171;28;20191;-92
2023/01/25 01:55:20;;;;;;;2.30;1.30;;;;;;;6.41;59.63;100463.09;5072814;28;20195;-91
2023/01/25 01:57:52;;;;;;;3.03;1.70;;;;;;;6.33;59.52;100468.41;5073425;28;20157;-91
2023/01/25 02:00:24;;;;;;;3.90;2.20;;;;;;;6.20;58.96;100461.66;5071663;28;20183;-91
2023/01/25 02:02:50;;;;;;;3.53;1.57;;;;;;;6.08;58.86;100462.66;5072951;28;20333;-91
2023/01/25 02:05:24;;;;;;;5.07;1.70;;;;;;;5.71;59.59;100465.72;5072728;28;20188;-91
2023/01/25 02:07:53;;;;;;;2.23;1.50;;;;;;;5.83;60.08;100461.25;5071633;28;20288;-91
2023/01/25 02:10:20;;;;;;;4.40;1.40;;;;;;;5.90;60.69;100457.69;5072316;28;20177;-91
2023/01/25 02:12:47;;;;;;;4.63;1.60;;;;;;;6.01;59.93;100455.84;5072032;28;20184;-91
2023/01/25 02:15:12;;;;;;;3.43;1.50;;;;;;;6.11;60.31;100462.63;5072013;28;20601;-92
2023/01/25 02:17:40;;;;;;;2.90;1.33;;;;;;;6.04;59.79;100462.75;5071945;28;20260;-91
2023/01/25 02:20:18;;;;;;;3.53;1.50;;;;;;;6.17;59.36;100462.56;5072638;28;20191;-91
2023/01/25 02:22:49;;;;;;;4.40;1.33;;;;;;;6.10;59.81;100454.84;5072861;28;20170;-91
2023/01/25 02:25:16;;;;;;;4.27;1.43;;;;;;;6.03;59.36;100467.06;5072999;28;20230;-91
2023/01/25 02:27:52;;;;;;;4.97;2.07;;;;;;;6.19;59.06;100459.91;5071478;28;20287;-91
2023/01/25 02:30:18;;;;;;;3.00;1.20;;;;;;;6.35;57.87;100469.25;5072929;28;20165;-91
2023/01/25 02:32:43;;;;;;;2.97;1.03;;;;;;;6.32;59.04;100461.47;5072593;28;20509;-91
2023/01/25 02:35:18;;;;;;;3.43;1.27;;;;;;;6.28;58.07;100457.19;5071548;28;20549;-91
2023/01/25 02:37:44;;;;;;;4.83;1.83;;;;;;;6.20;58.22;100461.66;5075675;28;20184;-92
2023/01/25 02:40:10;;;;;;;2.87;1.47;;;;;;;5.94;57.69;100453.34;5076425;28;20165;-91
2023/01/25 02:42:36;;;;;;;3.93;1.50;;;;;;;5.88;57.74;100458.59;5076280;28;20188;-91
2023/01/25 02:45:04;;;;;;;5.67;1.87;;;;;;;5.96;57.72;100461.97;5076489;28;20188;-91
2023/01/25 02:47:30;;;;;;;2.20;0.90;;;;;;;5.80;57.82;100455.19;5075126;28;20201;-91
2023/01/25 02:49:55;;;;;;;7.00;2.07;;;;;;;5.91;57.38;100458.56;5075342;28;20180;-91
2023/01/25 02:52:20;;;;;;;3.17;1.50;;;;;;;5.85;57.21;100454.31;5075141;28;20180;-91
2023/01/25 02:54:46;;;;;;;4.17;1.73;;;;;;;5.91;57.98;100458.56;5075282;28;20551;-91
2023/01/25 02:57:11;;;;;;;4.67;1.93;;;;;;;5.97;57.42;100453.28;5075470;28;20183;-91
2023/01/25 02:59:37;;;;;;;4.73;1.67;;;;;;;5.88;57.98;100453.41;5075445;28;20522;-92
2023/01/25 03:02:02;;;;;;;2.77;1.27;;;;;;;5.98;57.18;100452.41;5075741;28;20538;-91
2023/01/25 03:04:27;;;;;;;4.07;1.53;;;;;;;5.88;57.65;100453.41;5074731;28;20196;-91
2023/01/25 03:06:53;;;;;;;3.37;1.53;;;;;;;5.82;58.30;100454.31;5075619;28;20173;-91
2023/01/25 03:09:18;;;;;;;3.10;1.37;;;;;;;5.88;58.34;100453.41;5075006;28;20181;-91
2023/01/25 03:11:44;;;;;;;2.30;1.40;;;;;;;5.91;57.98;100450.75;5074708;28;20184;-92
2023/01/25 03:14:09;;;;;;;4.00;1.70;;;;;;;5.80;57.55;100445.66;5074971;28;20188;-91
2023/01/25 03:16:34;;;;;;;6.77;2.27;;;;;;;5.62;57.67;100445.00;5074511;28;20183;-90
2023/01/25 03:19:00;;;;;;;4.83;2.30;;;;;;;5.71;57.54;100444.94;5074524;28;20180;-91
2023/01/25 03:21:26;;;;;;;3.53;1.50;;;;;;;5.76;57.92;100443.13;5075677;28;20177;-91
2023/01/25 03:23:57;;;;;;;8.10;2.27;;;;;;;5.78;58.33;100446.56;5075474;28;20187;-91
2023/01/25 03:26:24;;;;;;;4.80;2.07;;;;;;;5.79;58.70;100448.28;5074761;28;20185;-91
2023/01/25 03:28:49;;;;;;;5.70;1.97;;;;;;;5.84;58.75;100438.69;5075806;28;20197;-91
2023/01/25 03:31:16;;;;;;;5.00;2.43;;;;;;;5.66;58.35;100441.53;5074396;28;20188;-91
2023/01/25 03:33:42;;;;;;;4.63;2.20;;;;;;;5.71;58.25;100448.41;5074256;28;20239;-91
2023/01/25 03:36:08;;;;;;;5.50;2.17;;;;;;;5.61;59.46;100443.31;5074898;28;20188;-91
2023/01/25 03:38:34;;;;;;;8.03;2.37;;;;;;;5.66;59.55;100444.13;5074457;28;20369;-91
2023/01/25 03:41:00;;;;;;;6.00;2.07;;;;;;;5.66;59.19;100441.53;5074187;28;20548;-90
2023/01/25 03:43:26;;;;;;;4.27;2.17;;;;;;;5.70;58.21;100444.06;5074290;28;20185;-90
2023/01/25 03:45:57;;;;;;;9.70;2.73;;;;;;;5.13;59.63;100466.34;5074208;28;20183;-90
2023/01/25 03:48:23;;;;;;;5.67;2.30;;;;;;;5.34;59.46;100458.34;5073965;28;20294;-90
2023/01/25 03:50:57;;;;;;;8.30;2.80;;;;;;;5.48;60.01;100445.16;5073780;28;20181;-90
2023/01/25 03:53:30;;;;;;;5.37;2.23;;;;;;;5.29;59.73;100448.88;5074717;28;20561;-90
2023/01/25 03:56:07;;;;;;;6.13;3.00;;;;;;;5.46;59.77;100450.41;5073739;28;20666;-90
2023/01/25 03:58:33;;;;;;;5.33;2.30;;;;;;;5.40;59.23;100450.47;5073798;28;20169;-90
2023/01/25 04:00:59;;;;;;;5.33;2.73;;;;;;;5.40;59.67;100457.38;5073989;28;20180;-90
2023/01/25 04:03:26;;;;;;;9.37;2.90;;;;;;;5.51;59.83;100452.94;5073892;28;20184;-91
2023/01/25 04:05:52;;;;;;;6.00;3.27;;;;;;;5.75;59.43;100444.00;5073562;28;20537;-91
2023/01/25 04:08:18;;;;;;;8.40;3.40;;;;;;;5.81;58.90;100444.78;5074969;28;20204;-90
2023/01/25 04:10:48;;;;;;;7.77;2.13;;;;;;;5.61;58.98;100448.53;5073538;28;20221;-91
2023/01/25 04:13:13;;;;;;;6.97;2.60;;;;;;;5.48;58.92;100452.97;5074509;28;20181;-90
2023/01/25 04:15:39;;;;;;;8.00;2.77;;;;;;;5.64;58.62;100454.53;5074436;28;20635;-90
2023/01/25 04:18:04;;;;;;;5.83;2.73;;;;;;;5.55;58.29;100463.28;5073444;28;20193;-90
2023/01/25 04:20:30;;;;;;;5.10;2.30;;;;;;;5.50;59.17;100459.03;5074851;28;20179;-91
2023/01/25 04:22:55;;;;;;;8.90;2.77;;;;;;;5.62;59.01;100452.81;5074822;28;20218;-91
2023/01/25 04:25:21;;;;;;;12.43;3.30;;;;;;;5.50;59.17;100454.69;5073508;28;20189;-91
2023/01/25 04:27:46;;;;;;;9.30;3.10;;;;;;;5.45;59.48;100455.63;5074453;28;20214;-91
2023/01/25 04:30:12;;;;;;;7.30;3.17;;;;;;;5.58;59.48;100457.22;5074720;28;20237;-91
2023/01/25 04:32:37;;;;;;;9.10;2.97;;;;;;;5.51;59.78;100452.94;5073104;28;20639;-92
2023/01/25 04:35:03;;;;;;;4.47;2.00;;;;;;;5.49;60.04;100455.56;5074000;28;20646;-91
2023/01/25 04:37:28;;;;;;;14.00;3.10;;;;;;;5.47;59.49;100459.94;5073287;28;20254;-91
2023/01/25 04:39:54;;;;;;;6.33;2.90;;;;;;;5.58;59.09;100465.03;5073232;28;20188;-90
2023/01/25 04:42:19;;;;;;;9.43;3.20;;;;;;;5.68;59.55;100465.75;5073351;28;20169;-91
2023/01/25 04:44:45;;;;;;;6.57;2.80;;;;;;;5.43;59.68;100463.44;5073173;28;20185;-91
2023/01/25 04:47:10;;;;;;;5.87;2.57;;;;;;;5.51;59.34;100476.34;5072655;28;20200;-90
2023/01/25 04:49:35;;;;;;;9.23;2.80;;;;;;;5.43;59.94;100475.56;5072718;28;20469;-91
2023/01/25 04:52:01;;;;;;;6.93;2.97;;;;;;;5.53;59.27;100477.19;5072959;28;20189;-90
2023/01/25 04:54:26;;;;;;;11.27;2.60;;;;;;;5.71;59.05;100470.94;5072942;28;20184;-91
2023/01/25 04:56:52;;;;;;;6.70;2.80;;;;;;;5.61;58.00;100475.38;5073078;28;20187;-90
2023/01/25 04:59:17;;;;;;;9.27;2.27;;;;;;;5.65;58.93;100479.66;5073855;28;20176;-91
2023/01/25 05:01:42;;;;;;;15.67;5.73;;;;;;;5.67;58.38;100484.84;5072989;28;20181;-91
2023/01/25 05:04:08;;;;;;;6.10;2.60;;;;;;;5.71;58.73;100482.22;5072730;28;20242;-91
2023/01/25 05:06:33;;;;;;;6.87;2.67;;;;;;;5.81;58.96;100480.34;5073691;28;20268;-91
2023/01/25 05:08:59;;;;;;;9.30;3.77;;;;;;;5.68;58.77;100486.56;5073392;28;20299;-90
2023/01/25 05:11:24;;;;;;;5.40;2.93;;;;;;;5.79;58.12;100477.75;5073855;28;20184;-90
2023/01/25 05:13:50;;;;;;;7.80;2.60;;;;;;;5.67;58.56;100479.63;5073212;28;20573;-90
2023/01/25 05:16:16;;;;;;;4.00;2.00;;;;;;;5.70;58.08;100484.81;5072582;28;20185;-91
2023/01/25 05:18:42;;;;;;;6.60;2.53;;;;;;;5.37;59.05;100486.88;5072526;28;20196;-90
2023/01/25 05:21:56;;;;;;;7.47;3.00;;;;;;;5.53;59.73;100487.59;5072515;28;20561;-91
2023/01/25 05:23:53;;;;;;;9.77;3.33;;;;;;;5.44;58.53;100483.38;5073263;28;20187;-90
2023/01/25 05:29:02;;;;;;;9.10;2.80;;;;;;;5.25;59.19;100478.34;5073091;28;20224;-91
2023/01/25 05:31:27;;;;;;;5.23;2.80;;;;;;;5.42;58.83;100479.06;5072638;28;20623;-91
2023/01/25 05:33:53;;;;;;;7.83;3.10;;;;;;;5.52;58.64;100480.69;5072346;28;20194;-90
2023/01/25 05:36:18;;;;;;;6.83;2.50;;;;;;;5.41;58.73;100486.00;5072564;28;20190;-90
2023/01/25 05:38:44;;;;;;;5.20;2.40;;;;;;;4.70;60.25;100496.16;5072776;28;20169;-90
2023/01/25 05:41:10;;;;;;;9.00;3.37;;;;;;;4.85;60.48;100498.63;5073093;28;20205;-91
2023/01/25 05:43:36;;;;;;;6.10;2.70;;;;;;;4.88;60.13;100501.19;5072477;28;20200;-91
2023/01/25 05:46:01;;;;;;;6.53;2.60;;;;;;;4.82;60.39;100499.50;5072185;28;20198;-90
2023/01/25 05:48:27;;;;;;;5.97;2.43;;;;;;;4.83;61.05;100496.03;5071751;28;20215;-91
2023/01/25 05:50:55;;;;;;;6.20;2.70;;;;;;;4.85;60.66;100498.63;5073112;28;20179;-90
2023/01/25 05:53:26;;;;;;;7.80;2.77;;;;;;;5.05;60.51;100499.34;5071870;28;20181;-91
2023/01/25 05:55:51;;;;;;;7.07;2.17;;;;;;;5.16;60.11;100500.13;5072128;28;20175;-91
2023/01/25 05:58:17;;;;;;;7.60;2.93;;;;;;;5.32;59.97;100493.88;5072187;28;20257;-90
2023/01/25 06:00:42;;;;;;;5.80;2.33;;;;;;;5.35;59.34;100488.66;5072010;28;20183;-91
2023/01/25 06:03:08;;;;;;;6.73;2.63;;;;;;;5.42;59.24;100487.69;5072542;28;20259;-91
2023/01/25 06:05:33;;;;;;;6.77;2.80;;;;;;;5.52;59.01;100480.69;5072215;28;20588;-91
2023/01/25 06:07:59;;;;;;;6.77;2.90;;;;;;;5.32;59.26;100493.03;5072489;28;20203;-91
2023/01/25 06:10:24;;;;;;;7.97;3.40;;;;;;;5.45;59.39;100479.88;5072303;28;20262;-91
2023/01/25 06:12:50;;;;;;;5.30;2.57;;;;;;;5.40;59.07;100486.84;5075006;28;20185;-91
2023/01/25 06:15:15;;;;;;;6.23;2.67;;;;;;;5.63;58.88;100489.25;5075806;28;20523;-91
2023/01/25 06:17:41;;;;;;;4.33;2.00;;;;;;;5.73;59.34;100488.25;5075997;28;20173;-91
2023/01/25 06:20:07;;;;;;;6.83;2.70;;;;;;;5.65;58.68;100484.88;5075681;28;20626;-92
2023/01/25 06:22:32;;;;;;;8.17;2.40;;;;;;;5.75;58.77;100483.00;5076082;28;20191;-91
2023/01/25 06:24:58;;;;;;;7.60;3.10;;;;;;;5.78;57.98;100480.38;5077073;28;20175;-91
2023/01/25 06:27:23;;;;;;;6.70;2.87;;;;;;;5.72;57.61;100490.84;5076489;28;20265;-90
2023/01/25 06:29:49;;;;;;;5.73;3.00;;;;;;;5.72;58.00;100485.66;5075779;28;20187;-91
2023/01/25 06:32:14;;;;;;;6.93;2.97;;;;;;;5.81;57.86;100490.75;5075425;28;20188;-91
2023/01/25 06:34:40;;;;;;;9.57;3.57;;;;;;;5.85;58.01;100495.06;5076277;28;20169;-90
2023/01/25 06:37:05;;;;;;;35.03;15.73;;;;;;;5.66;57.58;100499.59;5076218;28;20584;-90
2023/01/25 06:39:31;;;;;;;12.80;6.03;;;;;;;5.57;57.78;100495.38;5076464;28;20180;-90
2023/01/25 06:41:56;;;;;;;13.60;4.10;;;;;;;5.72;58.28;100493.44;5076380;28;20165;-90
2023/01/25 06:44:21;;;;;;;8.33;3.50;;;;;;;5.80;57.82;100489.88;5075158;28;20192;-90
2023/01/25 06:46:47;;;;;;;6.73;2.60;;;;;;;5.65;57.61;100497.00;5075678;28;20224;-90
2023/01/25 06:49:12;;;;;;;6.83;3.00;;;;;;;5.85;57.04;100487.25;5075876;28;20689;-90
2023/01/25 06:51:38;;;;;;;6.27;2.53;;;;;;;5.93;56.94;100488.91;5076780;28;20169;-90
2023/01/25 06:54:03;;;;;;;5.53;2.67;;;;;;;6.01;57.25;100491.41;5075938;28;20181;-90
2023/01/25 06:56:29;;;;;;;5.10;2.87;;;;;;;5.87;56.59;100494.16;5076181;28;20500;-91
2023/01/25 06:58:54;;;;;;;3.87;2.13;;;;;;;5.93;57.41;100490.63;5076098;28;20632;-91
2023/01/25 07:01:25;;;;;;;5.37;2.17;;;;;;;5.99;57.36;100495.78;5075827;28;20233;-90
2023/01/25 07:03:53;;;;;;;3.30;1.60;;;;;;;5.91;56.99;100489.78;5076337;28;20250;-90
2023/01/25 07:06:19;;;;;;;3.10;1.63;;;;;;;5.51;57.31;100491.94;5075737;28;20248;-90
2023/01/25 07:08:45;;;;;;;3.97;1.77;;;;;;;5.51;57.19;100498.03;5075551;28;20197;-90
2023/01/25 07:11:12;;;;;;;6.57;1.93;;;;;;;5.66;56.71;100493.53;5075681;28;20240;-90
2023/01/25 07:13:40;;;;;;;4.13;2.00;;;;;;;5.36;57.26;100505.97;5074608;28;20176;-90
2023/01/25 07:16:09;;;;;;;4.80;2.70;;;;;;;5.24;58.37;100506.06;5074526;28;20177;-90
2023/01/25 07:18:37;;;;;;;3.97;1.97;;;;;;;5.67;57.00;100500.44;5075326;28;20169;-90
2023/01/25 07:21:05;;;;;;;3.57;1.90;;;;;;;5.66;55.97;100493.53;5075438;28;20196;-90
2023/01/25 07:23:32;;;;;;;5.03;2.00;;;;;;;5.44;56.86;100498.97;5073179;28;20176;-90
2023/01/25 07:25:58;;;;;;;4.73;2.17;;;;;;;5.54;56.65;100495.38;5075858;28;20545;-91
2023/01/25 07:28:24;;;;;;;4.73;1.83;;;;;;;5.69;56.26;100498.69;5074557;28;20193;-90
2023/01/25 07:30:50;;;;;;;5.13;1.87;;;;;;;5.19;55.51;100507.84;5075545;28;20180;-90
2023/01/25 07:33:16;;;;;;;4.03;1.97;;;;;;;5.04;56.08;100514.94;5075200;28;20177;-90
2023/01/25 07:35:41;;;;;;;4.67;1.80;;;;;;;4.88;56.74;100511.59;5075215;28;20176;-90
2023/01/25 07:38:07;;;;;;;3.80;1.97;;;;;;;5.06;56.96;100515.81;5074321;28;20208;-90
2023/01/25 07:40:32;;;;;;;5.43;2.33;;;;;;;5.16;56.55;100522.63;5074409;28;20253;-90
2023/01/25 07:42:58;;;;;;;5.83;2.17;;;;;;;5.38;56.62;100519.81;5075281;28;20242;-90
2023/01/25 07:45:29;;;;;;;4.73;1.77;;;;;;;5.69;56.46;100509.09;5075025;28;20175;-90
2023/01/25 07:47:55;;;;;;;3.90;1.67;;;;;;;5.24;55.89;100511.28;5075694;28;20196;-90
2023/01/25 07:50:21;;;;;;;3.07;1.50;;;;;;;5.22;55.90;100518.22;5074944;28;20180;-91
2023/01/25 07:52:46;;;;;;;3.93;1.63;;;;;;;5.36;55.30;100521.59;5075428;28;20173;-90
2023/01/25 07:55:12;;;;;;;3.67;1.67;;;;;;;5.19;55.07;100520.03;5075057;28;20173;-90
2023/01/25 07:57:37;;;;;;;4.00;1.23;;;;;;;5.08;55.86;100521.84;5073815;28;20180;-90
2023/01/25 08:00:05;;;;;;;6.30;1.63;;;;;;;5.04;56.22;100515.78;5073813;28;20619;-91
2023/01/25 08:02:31;;;;;;;9.10;2.03;;;;;;;5.21;55.72;100519.13;5073728;28;20173;-91
2023/01/25 08:04:57;;;;;;;3.00;1.43;;;;;;;5.18;55.81;100520.88;5073652;28;20249;-90
2023/01/25 08:07:23;;;;;;;3.67;1.63;;;;;;;5.54;55.56;100516.19;5074452;28;20209;-90
2023/01/25 08:09:48;;;;;;;5.37;2.30;;;;;;;5.82;55.32;100508.06;5073880;28;20181;-91
2023/01/25 08:12:13;;;;;;;5.90;2.47;;;;;;;5.82;54.18;100505.47;5073529;28;20177;-89
2023/01/25 08:14:39;;;;;;;6.87;2.40;;;;;;;5.93;53.91;100520.13;5073444;28;20177;-90
2023/01/25 08:17:04;;;;;;;3.80;2.17;;;;;;;5.57;53.37;100518.78;5073411;28;20190;-90
2023/01/25 08:19:30;;;;;;;3.93;1.80;;;;;;;5.42;54.10;100521.50;5074581;28;20702;-90
2023/01/25 08:21:55;;;;;;;4.87;1.57;;;;;;;5.58;54.11;100517.03;5074302;28;20602;-91
2023/01/25 08:24:21;;;;;;;7.60;2.00;;;;;;;5.77;54.66;100515.06;5074496;28;20172;-90
2023/01/25 08:26:46;;;;;;;9.07;2.57;;;;;;;5.98;53.84;100520.06;5074214;28;20180;-90
2023/01/25 08:29:12;;;;;;;4.90;1.70;;;;;;;6.17;53.31;100508.56;5074460;28;20547;-90
2023/01/25 08:31:41;;;;;;;8.23;2.60;;;;;;;6.01;52.57;100512.22;5074632;28;20177;-90
2023/01/25 08:34:06;;;;;;;3.77;1.37;;;;;;;5.61;52.63;100521.34;5073100;28;20575;-90
2023/01/25 08:36:32;;;;;;;4.17;1.13;;;;;;;5.56;53.23;100510.97;5072989;28;20195;-90
2023/01/25 08:39:01;;;;;;;4.33;1.77;;;;;;;5.72;52.87;100504.72;5074512;28;20223;-90
2023/01/25 08:41:28;;;;;;;3.13;1.50;;;;;;;5.79;53.38;100510.75;5074472;28;20177;-90
2023/01/25 08:43:55;;;;;;;4.77;1.20;;;;;;;5.84;52.85;100515.00;5072848;28;20191;-90
2023/01/25 08:46:22;;;;;;;6.93;1.70;;;;;;;5.96;52.92;100503.63;5073784;28;20177;-91
2023/01/25 08:48:51;;;;;;;5.07;1.77;;;;;;;6.12;53.00;100506.00;5073734;28;20663;-91
2023/01/25 08:51:17;;;;;;;8.77;2.70;;;;;;;6.16;52.25;100506.81;5072662;28;20177;-90
2023/01/25 08:53:42;;;;;;;6.70;1.67;;;;;;;5.94;52.92;100502.78;5072683;28;20634;-90
2023/01/25 08:56:10;;;;;;;2.33;1.43;;;;;;;6.07;52.57;100500.00;5073552;28;20181;-90
2023/01/25 08:58:41;;;;;;;3.27;1.73;;;;;;;6.37;52.02;100496.13;5073830;28;20179;-90
2023/01/25 09:01:09;;;;;;;2.63;1.10;;;;;;;6.46;52.02;100496.00;5072513;28;20245;-90
2023/01/25 09:03:37;;;;;;;3.07;1.80;;;;;;;6.63;52.38;100499.22;5073475;28;20547;-90
2023/01/25 09:06:02;;;;;;;4.93;1.70;;;;;;;6.22;51.45;100495.47;5072409;28;20181;-90
2023/01/25 09:08:28;;;;;;;3.63;1.50;;;;;;;5.98;52.78;100488.84;5072270;28;20582;-90
2023/01/25 09:10:53;;;;;;;2.73;1.10;;;;;;;6.04;52.67;100481.81;5073469;28;20207;-91
2023/01/25 09:13:19;;;;;;;3.47;1.60;;;;;;;6.44;53.06;100484.75;5074159;28;20627;-90
2023/01/25 09:15:44;;;;;;;2.83;1.10;;;;;;;6.61;52.43;100480.13;5073077;28;20187;-90
2023/01/25 09:18:10;;;;;;;3.83;1.47;;;;;;;6.68;51.78;100476.53;5072267;28;20624;-90
2023/01/25 09:20:38;;;;;;;3.80;2.10;;;;;;;6.69;51.37;100478.28;5072387;28;20620;-90
2023/01/25 09:23:04;;;;;;;4.40;1.47;;;;;;;6.69;50.83;100470.47;5072284;28;20185;-90
2023/01/25 09:25:29;;;;;;;3.53;1.60;;;;;;;6.86;51.59;100465.00;5073015;28;20176;-91
2023/01/25 09:27:55;;;;;;;4.93;1.53;;;;;;;6.73;50.80;100460.88;5072144;28;20534;-91
2023/01/25 09:30:20;;;;;;;3.83;1.57;;;;;;;6.68;50.88;100455.69;5071723;28;20662;-90
2023/01/25 09:32:49;;;;;;;3.70;1.40;;;;;;;6.77;50.72;100455.56;5072181;28;20188;-90
2023/01/25 09:35:14;;;;;;;3.80;1.70;;;;;;;6.58;50.94;100453.25;5071809;28;20189;-91
2023/01/25 09:37:40;;;;;;;5.10;1.60;;;;;;;6.41;51.09;100445.72;5071910;28;20283;-90
2023/01/25 09:40:16;;;;;;;4.63;1.80;;;;;;;6.68;51.24;100434.88;5071971;28;20199;-90
2023/01/25 09:43:39;;;;;;;2.90;1.33;;;;;;;6.69;49.74;100435.72;5072004;28;20267;-91
2023/01/25 09:46:21;;;;;;;4.03;1.70;;;;;;;6.31;51.01;100435.47;5088671;28;20193;-90
2023/01/25 09:49:15;;;;;;;3.03;1.53;;;;;;;6.50;51.41;100434.31;5093358;28;20192;-91
2023/01/25 09:52:06;;;;;;;3.93;1.67;;;;;;;6.71;50.88;100429.59;5093464;28;20234;-91
2023/01/25 09:54:39;;;;;;;4.73;1.63;;;;;;;6.67;50.53;100427.94;5092036;28;20321;-90
2023/01/25 09:57:13;;;;;;;3.87;1.77;;;;;;;6.75;50.31;100417.41;5093531;28;20160;-90
2023/01/25 09:59:40;;;;;;;4.67;2.00;;;;;;;6.75;49.64;100420.88;5092948;28;20213;-91
2023/01/25 10:02:16;;;;;;;7.77;1.87;;;;;;;6.83;50.25;100412.91;5091806;28;20428;-90
2023/01/25 10:04:44;;;;;;;7.20;1.67;;;;;;;6.64;51.25;100412.38;5093417;28;20188;-91
2023/01/25 10:07:18;;;;;;;4.27;2.03;;;;;;;6.54;50.79;100410.78;5091759;28;20253;-91
2023/01/25 10:09:56;;;;;;;4.23;1.93;;;;;;;6.60;50.91;100405.47;5091898;28;20172;-90
2023/01/25 10:12:24;;;;;;;6.40;2.57;;;;;;;6.72;51.16;100400.06;5092716;28;20577;-91
2023/01/25 10:14:50;;;;;;;4.57;2.30;;;;;;;6.56;50.58;100398.59;5091741;28;20245;-90
2023/01/25 10:17:34;;;;;;;5.53;2.40;;;;;;;6.55;51.67;100396.88;5091723;28;20207;-90
2023/01/25 10:20:37;;;;;;;10.23;2.57;;;;;;;6.66;51.84;100388.88;5092078;28;20168;-90
2023/01/25 10:23:28;;;;;;;4.27;1.80;;;;;;;6.77;50.47;100377.41;5091647;28;20176;-90
2023/01/25 10:25:58;;;;;;;5.20;1.90;;;;;;;6.80;51.35;100372.13;5091920;28;20180;-91
2023/01/25 10:28:57;;;;;;;5.57;2.30;;;;;;;6.73;51.64;100375.72;5092837;28;20200;-90
2023/01/25 10:31:43;;;;;;;6.73;1.70;;;;;;;6.74;51.89;100372.22;5092661;28;20279;-91
2023/01/25 10:34:17;;;;;;;8.40;2.13;;;;;;;6.97;52.50;100366.59;5092029;28;20179;-90
2023/01/25 10:36:47;;;;;;;4.37;1.50;;;;;;;6.88;51.23;100363.31;5091719;28;20207;-91
2023/01/25 10:39:14;;;;;;;9.77;2.33;;;;;;;7.11;52.43;100348.09;5091589;28;20615;-91
2023/01/25 10:42:00;;;;;;;4.90;2.37;;;;;;;7.17;49.12;100342.78;5091791;28;20583;-90
2023/01/25 10:44:27;;;;;;;3.53;1.80;;;;;;;7.10;50.06;100349.00;5092364;28;20187;-91
2023/01/25 10:46:56;;;;;;;5.37;1.63;;;;;;;7.00;50.97;100343.09;5091804;28;20177;-91
2023/01/25 10:49:43;;;;;;;3.73;1.67;;;;;;;7.01;50.31;100341.34;5091314;28;20220;-91
2023/01/25 10:52:29;;;;;;;4.00;2.37;;;;;;;7.03;50.85;100336.94;5091346;28;20215;-91
2023/01/25 10:55:27;;;;;;;3.33;1.87;;;;;;;6.80;51.39;100329.56;5091395;28;20226;-91
2023/01/25 10:57:56;;;;;;;3.77;1.50;;;;;;;6.72;50.00;100337.53;5093448;28;20275;-91
2023/01/25 11:00:26;;;;;;;4.53;1.50;;;;;;;6.97;51.58;100321.44;5095220;28;20191;-91
2023/01/25 11:02:53;;;;;;;6.23;1.90;;;;;;;6.94;49.86;100329.31;5096025;28;20187;-91
2023/01/25 11:05:27;;;;;;;3.57;1.43;;;;;;;6.98;49.52;100323.16;5093532;28;20178;-91
2023/01/25 11:07:53;;;;;;;3.67;1.67;;;;;;;7.07;48.74;100318.66;5094963;28;20215;-91
2023/01/25 11:10:31;;;;;;;4.50;2.17;;;;;;;7.24;49.35;100323.50;5094991;28;20590;-91
2023/01/25 11:13:15;;;;;;;4.93;1.80;;;;;;;7.34;49.22;100318.06;5094953;28;20172;-91
2023/01/25 11:15:45;;;;;;;5.23;2.23;;;;;;;7.36;49.54;100318.06;5112238;28;20199;-91
2023/01/25 11:18:28;;;;;;;2.87;1.90;;;;;;;7.16;48.69;100310.63;5095454;28;20164;-90
2023/01/25 11:21:13;;;;;;;3.03;1.73;;;;;;;6.94;48.89;100311.09;5095092;28;20173;-90
2023/01/25 11:23:39;;;;;;;4.57;2.20;;;;;;;7.05;49.13;100309.13;5095544;28;20173;-90
2023/01/25 11:26:18;;;;;;;4.13;1.57;;;;;;;7.12;49.32;100301.16;5095031;28;20642;-90
2023/01/25 11:28:49;;;;;;;4.53;1.70;;;;;;;7.03;49.78;100300.47;5096118;28;20224;-90
2023/01/25 11:31:21;;;;;;;6.73;2.00;;;;;;;7.18;49.75;100294.97;5095475;28;20176;-91
2023/01/25 11:33:47;;;;;;;5.03;1.87;;;;;;;7.11;49.10;100296.81;5111761;28;20180;-91
2023/01/25 11:36:47;;;;;;;5.43;2.03;;;;;;;7.12;50.69;100284.66;5094612;28;20184;-91
2023/01/25 11:39:25;;;;;;;3.33;1.50;;;;;;;6.99;49.12;100291.88;5095341;28;20529;-90
2023/01/25 11:42:28;;;;;;;3.73;1.40;;;;;;;6.69;49.24;100285.47;5095199;28;20168;-91
2023/01/25 11:45:17;;;;;;;3.73;1.40;;;;;;;6.69;50.10;100277.66;5111284;28;20609;-90